CPX431 Details

Departure: Louis Armstrong New Orleans International Airport (KMSY)
Arrival: Nashville International Airport (KBNA) at N/A
Route: LBY MEI IGB HRTUN CHSNE2
Notes:


Current Weather Information
KMSY 191638Z VRB04KT 10SM TS SCT022CB SCT090 BKN150 BKN250 32/26 A3004 RMK AO2 LTG DSNT ALQDS TSB37 OCNL LTGICCG SE-SW TS SE-SW MOV SE CB DSNT W-N-E T03220256
KBNA 191553Z 05004KT 10SM FEW055 FEW200 33/21 A3008 RMK AO2 SLP176 T03280206